Time;durP1;ratioP1;P1;durP2;ratioP2;P2;SDS_P1;SDS_P2;PMS_P1;PMS_P2;Temp;Humidity;BMP_temperature;BMP_pressure;BME280_temperature;BME280_humidity;BME280_pressure;Samples;Min_cycle;Max_cycle;Signal;HPM_P1;HPM_P2
2022/03/25 00:01:55;;;;;;;2.43;2.10;;;7.60;77.10;;;;;;5144308;27;20198;-49
2022/03/25 00:04:40;;;;;;;4.37;2.23;;;7.50;77.20;;;;;;5146334;27;20190;-52
2022/03/25 00:07:27;;;;;;;3.70;2.40;;;7.50;77.40;;;;;;5145299;27;20223;-59
2022/03/25 00:10:12;;;;;;;3.40;1.87;;;7.40;77.80;;;;;;5145400;27;20191;-53
2022/03/25 00:12:57;;;;;;;2.97;2.10;;;7.30;78.20;;;;;;5146127;27;20203;-57
2022/03/25 00:15:41;;;;;;;3.47;1.93;;;7.20;78.60;;;;;;5144484;27;20269;-56
2022/03/25 00:18:26;;;;;;;3.73;2.40;;;7.20;78.90;;;;;;5146503;27;20272;-51
2022/03/25 00:21:10;;;;;;;4.07;3.20;;;7.20;79.00;;;;;;5145995;27;20202;-51
2022/03/25 00:23:55;;;;;;;5.23;3.10;;;7.00;79.60;;;;;;5143316;27;20230;-54
2022/03/25 00:26:39;;;;;;;3.73;2.43;;;7.10;79.80;;;;;;5146839;27;20194;-52
2022/03/25 00:29:23;;;;;;;4.60;2.70;;;7.10;79.90;;;;;;5144916;27;20190;-60
2022/03/25 00:32:08;;;;;;;5.50;3.13;;;7.00;80.10;;;;;;5143616;27;20314;-59
2022/03/25 00:34:54;;;;;;;5.40;2.73;;;7.00;80.30;;;;;;5146159;27;20199;-58
2022/03/25 00:37:38;;;;;;;3.00;2.43;;;7.10;80.20;;;;;;5144259;27;20258;-54
2022/03/25 00:40:24;;;;;;;2.80;2.00;;;7.00;80.40;;;;;;5145402;27;20341;-60
2022/03/25 00:43:10;;;;;;;4.30;2.77;;;6.90;80.90;;;;;;5145562;27;20215;-60
2022/03/25 00:45:54;;;;;;;2.53;2.33;;;6.90;81.30;;;;;;5142733;27;20240;-56
2022/03/25 00:48:40;;;;;;;3.60;2.30;;;6.90;81.30;;;;;;5145550;27;20218;-60
2022/03/25 00:51:24;;;;;;;5.50;3.07;;;6.80;81.80;;;;;;5144793;27;20248;-60
2022/03/25 00:54:10;;;;;;;4.20;2.40;;;6.80;82.30;;;;;;5143110;27;20197;-58
2022/03/25 00:56:54;;;;;;;5.00;3.73;;;6.90;82.20;;;;;;5145948;27;20230;-59
2022/03/25 00:59:39;;;;;;;5.10;2.93;;;6.80;82.40;;;;;;5144333;27;20198;-60
2022/03/25 01:02:24;;;;;;;4.47;2.87;;;6.70;82.70;;;;;;5143485;27;20199;-59
2022/03/25 01:05:08;;;;;;;4.90;2.70;;;6.60;82.90;;;;;;5145060;27;20244;-57
2022/03/25 01:07:53;;;;;;;4.27;2.93;;;6.70;83.10;;;;;;5144234;27;20240;-57
2022/03/25 01:10:37;;;;;;;6.63;3.00;;;6.70;83.10;;;;;;5143842;27;20295;-59
2022/03/25 01:13:22;;;;;;;6.70;3.23;;;6.60;83.40;;;;;;5144422;27;20190;-56
2022/03/25 01:16:08;;;;;;;4.70;3.30;;;6.60;83.60;;;;;;5142744;27;20222;-53
2022/03/25 01:18:52;;;;;;;14.93;3.10;;;6.50;83.60;;;;;;5144823;27;20195;-57
2022/03/25 01:21:37;;;;;;;7.13;3.20;;;6.50;84.10;;;;;;5144403;27;20240;-58
2022/03/25 01:24:23;;;;;;;5.07;3.03;;;6.40;84.30;;;;;;5143407;27;20206;-55
2022/03/25 01:27:09;;;;;;;8.67;3.40;;;6.40;84.40;;;;;;5145325;27;20194;-58
2022/03/25 01:29:54;;;;;;;4.03;3.67;;;6.40;84.40;;;;;;5143844;27;20274;-60
2022/03/25 01:32:40;;;;;;;4.40;3.03;;;6.40;84.50;;;;;;5142938;27;20190;-60
2022/03/25 01:35:25;;;;;;;3.73;2.73;;;6.30;85.10;;;;;;5144713;27;20233;-60
2022/03/25 01:38:09;;;;;;;8.90;3.27;;;6.20;85.80;;;;;;5143436;27;20187;-56
2022/03/25 01:40:55;;;;;;;4.97;3.57;;;6.20;85.60;;;;;;5143447;27;20234;-62
2022/03/25 01:43:44;;;;;;;3.33;2.60;;;6.30;85.60;;;;;;5144387;27;20189;-60
2022/03/25 01:46:28;;;;;;;4.70;2.90;;;6.20;85.80;;;;;;5142644;27;20195;-59
2022/03/25 01:49:14;;;;;;;11.00;4.73;;;6.20;85.80;;;;;;5144001;27;20218;-54
2022/03/25 01:52:03;;;;;;;6.80;3.37;;;6.20;85.80;;;;;;5144019;27;20621;-61
2022/03/25 01:54:47;;;;;;;10.83;4.10;;;6.10;86.50;;;;;;5142033;27;20199;-57
2022/03/25 01:57:32;;;;;;;7.07;3.53;;;6.10;86.70;;;;;;5144598;27;20218;-56
2022/03/25 02:00:18;;;;;;;6.90;3.53;;;6.10;86.60;;;;;;5143922;27;20252;-51
2022/03/25 02:03:04;;;;;;;4.60;3.03;;;6.10;87.00;;;;;;5142667;27;20195;-51
2022/03/25 02:05:49;;;;;;;5.83;3.40;;;6.10;86.90;;;;;;5144799;27;20268;-52
2022/03/25 02:08:34;;;;;;;6.77;3.70;;;6.00;87.20;;;;;;5143197;27;20286;-55
2022/03/25 02:11:19;;;;;;;6.30;3.83;;;6.00;87.50;;;;;;5142494;27;20243;-59
2022/03/25 02:14:04;;;;;;;6.30;3.57;;;6.00;87.50;;;;;;5145115;27;20198;-54
2022/03/25 02:16:49;;;;;;;4.77;3.93;;;5.80;88.10;;;;;;5142759;27;20229;-56
2022/03/25 02:19:33;;;;;;;5.73;3.87;;;5.80;88.30;;;;;;5143798;27;20199;-55
2022/03/25 02:22:18;;;;;;;5.80;3.07;;;5.80;88.70;;;;;;5144052;27;20199;-55
2022/03/25 02:28:44;;;;;;;5.70;3.50;;;5.70;88.90;;;;;;5144183;27;20186;-56
2022/03/25 02:31:29;;;;;;;9.03;3.40;;;5.70;89.80;;;;;;5144973;27;20199;-53
2022/03/25 02:34:13;;;;;;;4.83;3.60;;;5.60;89.40;;;;;;5142932;27;20218;-53
2022/03/25 02:36:57;;;;;;;4.83;3.40;;;5.60;89.70;;;;;;5144466;27;20256;-55
2022/03/25 02:39:41;;;;;;;8.73;4.03;;;5.50;90.00;;;;;;5144566;27;20234;-57
2022/03/25 02:42:25;;;;;;;8.37;5.17;;;5.40;90.20;;;;;;5142310;27;20222;-49
2022/03/25 02:45:09;;;;;;;9.87;4.43;;;5.30;90.50;;;;;;5144910;27;20232;-52
2022/03/25 02:47:54;;;;;;;8.47;5.17;;;5.20;90.80;;;;;;5144045;27;20191;-52
2022/03/25 02:50:39;;;;;;;11.80;5.87;;;5.30;90.90;;;;;;5142862;27;20186;-52
2022/03/25 02:53:24;;;;;;;7.30;3.43;;;5.30;90.90;;;;;;5144835;27;20195;-56
2022/03/25 02:56:08;;;;;;;4.53;3.63;;;5.30;90.90;;;;;;5145659;27;20240;-59
2022/03/25 02:58:53;;;;;;;7.27;3.97;;;5.30;91.20;;;;;;5147195;27;20187;-55
2022/03/25 03:01:38;;;;;;;12.33;4.30;;;5.30;91.10;;;;;;5148672;27;20191;-56
2022/03/25 03:04:23;;;;;;;7.50;4.07;;;5.20;91.20;;;;;;5146449;27;20191;-57
2022/03/25 03:07:08;;;;;;;5.73;4.20;;;5.10;91.40;;;;;;5147852;27;20621;-56
2022/03/25 03:09:52;;;;;;;13.30;4.80;;;5.10;91.60;;;;;;5148120;27;20307;-58
2022/03/25 03:12:37;;;;;;;7.30;4.20;;;5.00;91.70;;;;;;5146072;27;20256;-60
2022/03/25 03:15:22;;;;;;;12.27;4.30;;;4.90;92.00;;;;;;5148181;27;20202;-57
2022/03/25 03:18:07;;;;;;;10.30;5.73;;;4.90;92.10;;;;;;5147109;27;20243;-50
2022/03/25 03:20:51;;;;;;;4.93;3.20;;;5.00;92.00;;;;;;5146059;27;20191;-58
2022/03/25 03:23:35;;;;;;;8.13;3.33;;;5.00;91.90;;;;;;5148789;27;20190;-61
2022/03/25 03:26:21;;;;;;;9.17;3.57;;;5.10;91.90;;;;;;5146138;27;20191;-57
2022/03/25 03:29:05;;;;;;;7.20;4.13;;;5.00;92.10;;;;;;5146755;27;20202;-56
2022/03/25 03:31:49;;;;;;;7.63;4.03;;;5.00;92.00;;;;;;5147685;27;20195;-56
2022/03/25 03:34:35;;;;;;;7.53;4.13;;;5.00;92.00;;;;;;5146015;27;20194;-55
2022/03/25 03:37:19;;;;;;;9.50;4.40;;;5.00;91.80;;;;;;5147378;27;20219;-49
2022/03/25 03:40:04;;;;;;;7.77;4.00;;;4.90;92.10;;;;;;5147898;27;20296;-57
2022/03/25 03:42:48;;;;;;;6.40;4.60;;;4.80;92.20;;;;;;5145590;27;20252;-59
2022/03/25 03:45:33;;;;;;;7.63;4.47;;;4.90;92.20;;;;;;5148079;27;20190;-53
2022/03/25 03:48:18;;;;;;;5.57;4.07;;;4.80;92.30;;;;;;5146485;27;20364;-58
2022/03/25 03:51:02;;;;;;;6.27;4.33;;;4.70;92.90;;;;;;5145777;27;20199;-53
2022/03/25 03:53:47;;;;;;;8.73;3.87;;;4.60;93.00;;;;;;5147710;27;20271;-53
2022/03/25 03:56:31;;;;;;;6.23;3.20;;;4.50;93.50;;;;;;5145493;27;20267;-53
2022/03/25 03:59:15;;;;;;;6.03;4.57;;;4.50;93.60;;;;;;5146688;27;20626;-57
2022/03/25 04:02:00;;;;;;;8.13;4.40;;;4.30;93.90;;;;;;5147785;27;20202;-59
2022/03/25 04:04:44;;;;;;;8.37;4.63;;;4.30;94.20;;;;;;5145007;27;20278;-59
2022/03/25 04:07:28;;;;;;;7.17;4.97;;;4.50;94.10;;;;;;5146666;27;20210;-58
2022/03/25 04:10:13;;;;;;;6.43;3.87;;;4.30;94.20;;;;;;5146724;27;20221;-55
2022/03/25 04:12:58;;;;;;;7.30;4.13;;;4.40;94.10;;;;;;5144834;27;20190;-54
2022/03/25 04:15:42;;;;;;;6.47;4.40;;;4.40;94.00;;;;;;5130718;27;20191;-51
2022/03/25 04:18:27;;;;;;;6.63;4.17;;;4.40;93.90;;;;;;5114056;27;20273;-51
2022/03/25 04:21:12;;;;;;;14.70;5.10;;;4.40;94.10;;;;;;5122205;27;20237;-57
2022/03/25 04:23:57;;;;;;;11.17;4.03;;;4.40;94.00;;;;;;5126823;27;20283;-53
2022/03/25 04:26:41;;;;;;;13.93;5.57;;;4.30;94.10;;;;;;5125331;27;20195;-53
2022/03/25 04:29:26;;;;;;;8.33;3.93;;;4.20;94.20;;;;;;5124976;27;20237;-59
2022/03/25 04:32:10;;;;;;;9.50;4.90;;;4.30;94.30;;;;;;5126944;27;20204;-56
2022/03/25 04:34:55;;;;;;;7.77;3.73;;;4.20;94.40;;;;;;5123850;27;20238;-51
2022/03/25 04:37:39;;;;;;;9.77;5.37;;;4.30;94.30;;;;;;5125860;27;20245;-49
2022/03/25 04:40:26;;;;;;;7.10;4.50;;;4.30;94.50;;;;;;5125873;27;20230;-50
2022/03/25 04:43:10;;;;;;;10.60;4.77;;;4.20;94.60;;;;;;5123692;27;20234;-55
2022/03/25 04:45:55;;;;;;;9.17;4.03;;;4.20;94.70;;;;;;5126354;27;20191;-53
2022/03/25 04:48:40;;;;;;;15.37;4.93;;;4.20;94.80;;;;;;5124827;27;20249;-55
2022/03/25 04:51:24;;;;;;;9.20;4.50;;;4.10;95.10;;;;;;5124248;27;20211;-57
2022/03/25 04:54:08;;;;;;;8.93;4.57;;;4.10;95.30;;;;;;5126298;27;20223;-52
2022/03/25 04:56:52;;;;;;;10.83;5.43;;;4.10;95.30;;;;;;5124165;27;20254;-56
2022/03/25 04:59:36;;;;;;;11.03;5.33;;;4.10;95.10;;;;;;5124392;27;20230;-50
2022/03/25 05:02:22;;;;;;;32.70;13.13;;;4.20;95.10;;;;;;5125391;27;20191;-58
2022/03/25 05:05:07;;;;;;;14.97;5.27;;;4.30;95.50;;;;;;5123488;27;20253;-57
2022/03/25 05:07:51;;;;;;;8.40;4.90;;;4.20;95.10;;;;;;5125011;27;20291;-58
2022/03/25 05:10:37;;;;;;;12.77;5.63;;;4.20;95.20;;;;;;5124976;27;20207;-49
2022/03/25 05:13:22;;;;;;;9.00;5.13;;;4.20;96.70;;;;;;5122901;27;20249;-59
2022/03/25 05:16:07;;;;;;;13.67;6.27;;;4.20;96.60;;;;;;5125848;27;20227;-59
2022/03/25 05:18:51;;;;;;;7.67;4.20;;;4.10;96.80;;;;;;5123766;27;20207;-57
2022/03/25 05:21:35;;;;;;;12.80;5.20;;;4.10;96.60;;;;;;5123314;27;20241;-51
2022/03/25 05:24:20;;;;;;;7.53;4.93;;;4.30;97.30;;;;;;5125621;27;20223;-58
2022/03/25 05:27:04;;;;;;;6.90;4.50;;;4.30;96.30;;;;;;5123769;27;20223;-50
2022/03/25 05:29:49;;;;;;;9.67;4.70;;;4.30;96.80;;;;;;5123479;27;20265;-52
2022/03/25 05:32:33;;;;;;;9.97;5.43;;;4.20;95.90;;;;;;5151542;27;20245;-60
2022/03/25 05:35:19;;;;;;;7.80;3.83;;;4.30;96.60;;;;;;5121069;27;20180;-54
2022/03/25 05:38:04;;;;;;;6.97;5.27;;;4.60;96.00;;;;;;5123444;27;20233;-53
2022/03/25 05:40:48;;;;;;;7.20;5.70;;;4.50;95.30;;;;;;5124056;27;20247;-57
2022/03/25 05:43:34;;;;;;;8.47;4.43;;;4.40;95.20;;;;;;5150636;27;20304;-57
2022/03/25 05:46:18;;;;;;;6.80;4.93;;;4.40;95.30;;;;;;5123151;27;20234;-57
2022/03/25 05:49:03;;;;;;;9.30;4.27;;;4.50;95.30;;;;;;5122555;27;20190;-56
2022/03/25 05:51:47;;;;;;;10.63;5.00;;;4.50;95.50;;;;;;5119455;28;20237;-55
2022/03/25 05:54:32;;;;;;;10.97;4.73;;;4.50;95.40;;;;;;5122093;28;20179;-59
2022/03/25 05:57:16;;;;;;;11.23;4.50;;;4.40;95.60;;;;;;5120338;28;20219;-58
2022/03/25 06:00:02;;;;;;;12.83;5.70;;;4.50;95.40;;;;;;5121585;28;20205;-57
2022/03/25 06:02:46;;;;;;;8.23;4.20;;;4.60;95.40;;;;;;5122816;28;20281;-50
2022/03/25 06:05:31;;;;;;;11.07;4.93;;;4.60;95.10;;;;;;5120475;28;20270;-57
2022/03/25 06:08:15;;;;;;;13.13;5.33;;;4.70;95.00;;;;;;5121192;28;20199;-52
2022/03/25 06:11:00;;;;;;;11.03;5.77;;;4.60;94.80;;;;;;5121444;28;20199;-50
2022/03/25 06:13:45;;;;;;;10.33;5.40;;;4.50;95.00;;;;;;5120140;28;20210;-56
2022/03/25 06:16:30;;;;;;;10.23;5.73;;;4.40;95.10;;;;;;5123030;28;20257;-57
2022/03/25 06:19:14;;;;;;;9.80;4.87;;;4.60;95.00;;;;;;5122183;28;20204;-58
2022/03/25 06:21:59;;;;;;;9.93;5.60;;;4.60;94.90;;;;;;5155116;27;20222;-55
2022/03/25 06:28:26;;;;;;;7.30;4.73;;;4.60;94.80;;;;;;5143799;27;20212;-55
2022/03/25 06:31:10;;;;;;;8.60;4.77;;;4.80;95.00;;;;;;5145011;27;20190;-58
2022/03/25 06:33:55;;;;;;;9.53;5.73;;;4.80;94.70;;;;;;5149097;27;20202;-60
2022/03/25 06:36:39;;;;;;;7.43;4.83;;;4.90;94.50;;;;;;5148011;27;20238;-55
2022/03/25 06:39:23;;;;;;;7.43;4.70;;;4.90;94.80;;;;;;5147172;27;20254;-53
2022/03/25 06:42:08;;;;;;;9.47;4.80;;;5.10;94.40;;;;;;5148954;27;20199;-59
2022/03/25 06:44:52;;;;;;;7.80;4.67;;;5.00;94.20;;;;;;5146732;27;20266;-61
2022/03/25 06:47:37;;;;;;;6.13;4.17;;;5.10;94.20;;;;;;5145743;27;20224;-57
2022/03/25 06:50:23;;;;;;;10.30;5.70;;;5.20;94.30;;;;;;5138050;27;20248;-55
2022/03/25 06:53:08;;;;;;;10.20;6.07;;;5.10;94.10;;;;;;5136470;27;20196;-61
2022/03/25 06:55:53;;;;;;;10.50;5.00;;;5.10;94.50;;;;;;5134455;27;20230;-53
2022/03/25 06:58:38;;;;;;;8.57;4.83;;;5.20;94.20;;;;;;5136349;27;20195;-57
2022/03/25 07:01:23;;;;;;;9.80;4.30;;;5.30;94.10;;;;;;5135318;27;20195;-54
2022/03/25 07:04:07;;;;;;;8.90;4.63;;;5.50;94.00;;;;;;5139226;27;20192;-60
2022/03/25 07:06:56;;;;;;;9.90;5.10;;;5.40;94.00;;;;;;5132813;27;20274;-59
2022/03/25 07:09:40;;;;;;;7.77;4.70;;;5.50;94.00;;;;;;5135805;27;20195;-61
2022/03/25 07:12:25;;;;;;;10.67;5.27;;;5.60;93.90;;;;;;5137970;27;20205;-54
2022/03/25 07:15:10;;;;;;;9.50;5.40;;;5.70;93.60;;;;;;5131430;27;20202;-61
2022/03/25 07:17:55;;;;;;;6.80;4.33;;;5.80;93.60;;;;;;5132974;27;20250;-59
2022/03/25 07:20:40;;;;;;;4.90;4.10;;;5.80;93.60;;;;;;5131128;27;20279;-60
2022/03/25 07:23:26;;;;;;;7.37;4.43;;;5.90;93.50;;;;;;5130268;27;20207;-53
2022/03/25 07:26:12;;;;;;;10.13;4.73;;;6.10;93.30;;;;;;5135289;27;20287;-56
2022/03/25 07:28:56;;;;;;;6.77;4.30;;;6.30;93.20;;;;;;5135024;27;20244;-50
2022/03/25 07:31:42;;;;;;;8.63;4.73;;;6.40;93.00;;;;;;5134666;27;20282;-54
2022/03/25 07:34:27;;;;;;;4.97;4.37;;;6.40;92.90;;;;;;5117240;27;20200;-53
2022/03/25 07:37:11;;;;;;;9.67;5.50;;;6.60;92.70;;;;;;5141259;27;20300;-58
2022/03/25 07:39:57;;;;;;;8.83;5.07;;;6.70;92.70;;;;;;5154896;27;20243;-53
2022/03/25 07:42:44;;;;;;;6.50;4.27;;;6.90;92.50;;;;;;5157010;27;20209;-59
2022/03/25 07:45:28;;;;;;;9.27;5.97;;;7.10;92.10;;;;;;5108529;27;20223;-56
2022/03/25 07:48:12;;;;;;;9.97;4.73;;;7.20;91.80;;;;;;5110333;27;20244;-50
2022/03/25 07:50:57;;;;;;;6.23;3.77;;;7.30;91.70;;;;;;5147375;27;20198;-59
2022/03/25 07:53:41;;;;;;;6.33;4.27;;;7.40;91.30;;;;;;5129715;27;20237;-60
2022/03/25 07:56:27;;;;;;;6.70;3.60;;;7.60;91.30;;;;;;5126014;27;20274;-61
2022/03/25 07:59:11;;;;;;;9.13;4.27;;;7.80;91.10;;;;;;5126688;27;20191;-52
2022/03/25 08:01:56;;;;;;;6.93;4.50;;;8.00;90.80;;;;;;5120496;27;20253;-55
2022/03/25 08:04:41;;;;;;;7.17;3.43;;;8.10;90.60;;;;;;5123546;27;20242;-51
2022/03/25 08:07:26;;;;;;;6.07;3.50;;;8.30;90.50;;;;;;5123290;27;20257;-52
2022/03/25 08:10:10;;;;;;;11.13;5.57;;;8.60;90.30;;;;;;5125198;27;20198;-56
2022/03/25 08:12:56;;;;;;;10.27;4.87;;;8.80;90.00;;;;;;5126683;27;20218;-60
2022/03/25 08:15:40;;;;;;;7.77;5.27;;;9.20;89.60;;;;;;5125239;27;20188;-51
2022/03/25 08:18:25;;;;;;;9.50;5.03;;;9.60;88.30;;;;;;5122983;27;20194;-61
2022/03/25 08:21:11;;;;;;;9.77;5.10;;;9.90;86.70;;;;;;5124451;27;20183;-61
2022/03/25 08:30:02;;;;;;;11.07;6.13;;;11.40;82.90;;;;;;5128024;27;20192;-55
2022/03/25 08:32:46;;;;;;;12.60;7.10;;;11.90;81.10;;;;;;5122934;27;20207;-56
2022/03/25 08:35:31;;;;;;;11.53;7.13;;;12.20;79.20;;;;;;5125380;27;20191;-59
2022/03/25 08:38:15;;;;;;;13.37;7.33;;;12.30;78.80;;;;;;5126500;27;20199;-56
2022/03/25 08:41:00;;;;;;;13.60;7.03;;;12.50;78.20;;;;;;5124624;27;20256;-48
2022/03/25 08:43:47;;;;;;;14.37;7.13;;;12.90;76.40;;;;;;5126013;27;20198;-48
2022/03/25 08:46:32;;;;;;;17.53;7.33;;;13.20;75.10;;;;;;5125944;27;20259;-58
2022/03/25 08:49:16;;;;;;;11.17;6.67;;;13.40;74.10;;;;;;5124246;27;20245;-55
2022/03/25 08:52:02;;;;;;;13.70;7.43;;;13.60;72.20;;;;;;5125136;27;20201;-53
2022/03/25 08:54:48;;;;;;;17.37;6.87;;;13.30;70.40;;;;;;5124726;27;20191;-60
2022/03/25 08:57:33;;;;;;;13.73;7.37;;;13.50;69.70;;;;;;5123310;27;20219;-57
2022/03/25 09:00:19;;;;;;;13.77;7.17;;;13.60;68.70;;;;;;5125679;27;20194;-53
2022/03/25 09:03:05;;;;;;;11.73;6.87;;;13.90;68.10;;;;;;5123972;27;20189;-57
2022/03/25 09:05:49;;;;;;;10.63;7.03;;;14.30;68.10;;;;;;5123910;27;20276;-59
2022/03/25 09:08:33;;;;;;;13.13;7.37;;;14.80;65.90;;;;;;5125117;27;20240;-59
2022/03/25 09:11:18;;;;;;;11.80;7.27;;;15.10;64.10;;;;;;5123372;27;20326;-55
2022/03/25 09:14:03;;;;;;;10.50;7.17;;;15.10;62.20;;;;;;5124496;27;20186;-53
2022/03/25 09:16:47;;;;;;;11.57;7.07;;;15.70;61.50;;;;;;5124730;27;20286;-56
2022/03/25 09:19:31;;;;;;;15.77;8.10;;;16.10;59.90;;;;;;5123168;27;20187;-49
2022/03/25 09:22:15;;;;;;;14.63;7.27;;;16.20;59.60;;;;;;5125450;27;20689;-59
2022/03/25 09:25:01;;;;;;;11.90;6.83;;;16.80;58.20;;;;;;5124103;27;20205;-56
2022/03/25 09:27:45;;;;;;;10.97;6.87;;;17.10;57.60;;;;;;5122783;27;20202;-52
2022/03/25 09:30:29;;;;;;;14.87;7.13;;;17.30;56.70;;;;;;5125586;27;20212;-56
2022/03/25 09:33:13;;;;;;;14.37;7.80;;;17.40;56.80;;;;;;5123000;27;20202;-53
2022/03/25 09:35:57;;;;;;;13.53;8.00;;;17.50;56.90;;;;;;5123796;27;20190;-56
2022/03/25 09:38:41;;;;;;;14.00;7.65;;;17.70;56.10;;;;;;5124972;27;20261;-52
2022/03/25 09:41:25;;;;;;;15.32;8.30;;;18.00;55.50;;;;;;5122660;27;20230;-50
2022/03/25 09:44:09;;;;;;;11.95;7.95;;;18.00;55.80;;;;;;5124333;27;20187;-50
2022/03/25 09:46:53;;;;;;;12.73;7.50;;;18.70;55.50;;;;;;5124304;27;20195;-50
2022/03/25 09:49:38;;;;;;;13.05;7.93;;;18.70;54.20;;;;;;5114730;27;20215;-50
2022/03/25 09:52:26;;;;;;;15.65;8.23;;;18.80;54.70;;;;;;5148790;27;20227;-52
2022/03/25 09:55:13;;;;;;;16.23;8.50;;;19.70;53.10;;;;;;5122592;28;20191;-55
2022/03/25 09:57:57;;;;;;;16.67;8.73;;;20.10;52.20;;;;;;5112945;27;20235;-52
2022/03/25 10:00:50;;;;;;;12.30;7.95;;;20.00;51.80;;;;;;5105720;27;20226;-55
2022/03/25 10:03:36;;;;;;;11.95;8.07;;;20.90;51.10;;;;;;5124605;27;20260;-56
2022/03/25 10:06:21;;;;;;;14.80;8.75;;;21.00;50.20;;;;;;5128024;27;20275;-48
2022/03/25 10:09:05;;;;;;;11.93;8.18;;;21.00;50.20;;;;;;5164201;27;20203;-56
2022/03/25 10:11:49;;;;;;;13.38;9.05;;;22.50;48.90;;;;;;5128152;27;20190;-58
2022/03/25 10:14:34;;;;;;;17.63;9.02;;;21.40;48.40;;;;;;5114183;27;20257;-53
2022/03/25 10:17:19;;;;;;;14.25;8.85;;;21.20;49.70;;;;;;5161271;27;20218;-52
2022/03/25 10:20:10;;;;;;;15.82;9.35;;;21.80;49.10;;;;;;5127561;27;20186;-57
2022/03/25 10:23:08;;;;;;;19.35;9.15;;;21.50;48.00;;;;;;5142111;27;20272;-54
2022/03/25 10:25:57;;;;;;;15.68;9.60;;;22.40;47.40;;;;;;5128332;27;20204;-58
2022/03/25 10:28:44;;;;;;;11.82;8.57;;;22.70;46.80;;;;;;5125451;27;20200;-55
2022/03/25 10:31:28;;;;;;;14.48;8.40;;;23.10;46.20;;;;;;5133954;27;20191;-57
2022/03/25 10:34:18;;;;;;;12.57;9.15;;;22.90;45.60;;;;;;5132631;27;20245;-52
2022/03/25 10:37:06;;;;;;;13.68;9.00;;;23.60;45.50;;;;;;5125212;27;20231;-58
2022/03/25 10:39:52;;;;;;;10.88;8.15;;;23.40;45.50;;;;;;5125882;27;20222;-54
2022/03/25 10:42:36;;;;;;;13.18;9.05;;;22.60;45.10;;;;;;5123339;27;20195;-50
2022/03/25 10:45:27;;;;;;;14.10;9.38;;;22.30;45.60;;;;;;5119800;27;20190;-50
2022/03/25 10:48:19;;;;;;;12.75;8.75;;;22.40;45.50;;;;;;5135311;27;20192;-51
2022/03/25 10:51:07;;;;;;;12.60;8.77;;;23.90;44.00;;;;;;5131609;27;20191;-59
2022/03/25 10:54:25;;;;;;;14.48;9.45;;;24.10;43.70;;;;;;5114086;27;20268;-59
2022/03/25 10:57:09;;;;;;;13.00;8.68;;;24.30;42.40;;;;;;5130434;27;20270;-59
2022/03/25 10:59:58;;;;;;;16.48;9.45;;;25.30;41.70;;;;;;5140031;27;20209;-55
2022/03/25 11:02:44;;;;;;;12.45;8.52;;;24.70;41.80;;;;;;5117793;27;20202;-53
2022/03/25 11:05:29;;;;;;;12.50;8.27;;;25.20;41.80;;;;;;5129749;27;20291;-57
2022/03/25 11:08:13;;;;;;;12.60;8.63;;;25.40;40.70;;;;;;5119091;27;20195;-57
2022/03/25 11:10:58;;;;;;;13.27;10.02;;;25.90;40.50;;;;;;5135344;27;20206;-54
2022/03/25 11:13:45;;;;;;;13.65;8.98;;;25.50;40.00;;;;;;5118412;27;20195;-53
2022/03/25 11:16:31;;;;;;;12.15;8.82;;;26.00;40.30;;;;;;5122582;27;20226;-51
2022/03/25 11:19:16;;;;;;;12.90;9.77;;;25.40;39.70;;;;;;5130499;27;20237;-54
2022/03/25 11:22:04;;;;;;;12.45;8.90;;;26.00;38.90;;;;;;5126479;27;20182;-57
2022/03/25 11:24:52;;;;;;;11.70;8.60;;;25.00;39.80;;;;;;5121346;27;20183;-57
2022/03/25 11:27:38;;;;;;;13.95;8.93;;;24.80;39.70;;;;;;5131761;27;20234;-52
2022/03/25 11:30:23;;;;;;;12.10;8.95;;;24.40;39.80;;;;;;5124416;27;20192;-58
2022/03/25 11:33:08;;;;;;;20.15;13.73;;;25.30;39.30;;;;;;5134333;27;20191;-54
2022/03/25 11:36:15;;;;;;;11.63;8.35;;;26.40;38.20;;;;;;5123439;27;20194;-55
2022/03/25 11:39:21;;;;;;;15.32;9.20;;;26.80;37.50;;;;;;5122509;27;20280;-59
2022/03/25 11:42:07;;;;;;;14.23;9.75;;;27.40;37.40;;;;;;5124885;27;20256;-60
2022/03/25 11:45:34;;;;;;;12.18;8.65;;;28.20;37.00;;;;;;5128990;27;20219;-54
2022/03/25 11:48:24;;;;;;;14.40;9.25;;;28.60;36.60;;;;;;5122736;27;20256;-51
2022/03/25 11:51:29;;;;;;;12.27;9.20;;;29.10;35.90;;;;;;5122587;27;20196;-48
2022/03/25 11:54:43;;;;;;;14.65;9.60;;;27.60;35.90;;;;;;5123088;27;20190;-50
2022/03/25 11:57:31;;;;;;;9.95;8.77;;;27.90;36.70;;;;;;5125159;27;20265;-53
2022/03/25 12:00:23;;;;;;;11.88;8.75;;;28.70;36.10;;;;;;5130260;27;20216;-57
2022/03/25 12:03:08;;;;;;;11.68;8.30;;;27.40;36.90;;;;;;5115359;27;20216;-51
2022/03/25 12:06:03;;;;;;;11.95;9.80;;;26.50;37.70;;;;;;5130276;27;20198;-51
2022/03/25 12:09:08;;;;;;;12.05;8.93;;;26.90;37.40;;;;;;5129556;27;20203;-50
2022/03/25 12:11:56;;;;;;;13.50;9.10;;;27.10;37.10;;;;;;5109734;27;20208;-51
2022/03/25 12:15:10;;;;;;;10.77;8.77;;;26.90;36.80;;;;;;5124444;27;20195;-50
2022/03/25 12:18:34;;;;;;;13.07;9.52;;;26.00;37.70;;;;;;5129803;27;20218;-50
2022/03/25 12:21:21;;;;;;;16.33;10.27;;;26.40;38.10;;;;;;5120733;27;20250;-52
2022/03/25 12:24:06;;;;;;;14.60;9.32;;;26.30;37.20;;;;;;5118489;27;20259;-45
2022/03/25 12:27:00;;;;;;;13.50;9.43;;;25.60;38.90;;;;;;5125547;27;20250;-46
2022/03/25 12:29:51;;;;;;;16.02;9.18;;;25.30;38.30;;;;;;5124261;27;20223;-51
2022/03/25 12:32:37;;;;;;;13.57;9.35;;;25.70;37.90;;;;;;5127924;27;20243;-50
2022/03/25 12:35:28;;;;;;;12.45;8.70;;;26.10;37.80;;;;;;5107342;27;20207;-48
2022/03/25 12:38:23;;;;;;;15.93;9.10;;;25.80;38.30;;;;;;5108819;27;20228;-46
2022/03/25 12:41:07;;;;;;;12.10;9.18;;;26.30;37.40;;;;;;5125791;27;20227;-52
2022/03/25 12:43:59;;;;;;;20.17;12.10;;;25.80;37.90;;;;;;5118822;27;20203;-48
2022/03/25 12:46:43;;;;;;;14.10;9.90;;;23.20;40.30;;;;;;5115310;27;20240;-51
2022/03/25 12:49:28;;;;;;;16.42;10.70;;;22.10;42.40;;;;;;5127119;27;20190;-55
2022/03/25 12:52:12;;;;;;;16.33;9.80;;;21.80;42.90;;;;;;5124624;27;20615;-49
2022/03/25 12:55:16;;;;;;;16.65;9.93;;;21.80;43.00;;;;;;5116064;27;20236;-53
2022/03/25 12:58:07;;;;;;;17.48;10.45;;;21.20;43.30;;;;;;5117471;27;20273;-53
2022/03/25 13:00:54;;;;;;;13.68;8.75;;;21.10;43.80;;;;;;5124391;27;20253;-47
2022/03/25 13:03:38;;;;;;;18.33;9.77;;;21.00;44.60;;;;;;5103711;28;20196;-57
2022/03/25 13:06:24;;;;;;;19.08;10.90;;;21.40;43.90;;;;;;5117497;27;20276;-61
2022/03/25 13:09:08;;;;;;;17.05;8.85;;;22.30;42.90;;;;;;5102481;28;20223;-57
2022/03/25 13:11:58;;;;;;;12.77;8.50;;;24.20;41.20;;;;;;5103179;28;20188;-46
2022/03/25 13:14:53;;;;;;;12.18;8.50;;;25.60;38.50;;;;;;5104853;28;20204;-53
2022/03/25 13:17:43;;;;;;;12.90;9.50;;;26.60;38.10;;;;;;5112877;27;20292;-53
2022/03/25 13:20:34;;;;;;;14.93;8.90;;;26.40;37.40;;;;;;5123832;27;20233;-51
2022/03/25 13:23:21;;;;;;;13.27;8.57;;;26.70;37.30;;;;;;5125316;27;20230;-57
2022/03/25 13:26:08;;;;;;;12.57;8.30;;;26.50;37.60;;;;;;5123119;27;20195;-55
2022/03/25 13:28:54;;;;;;;11.25;8.43;;;26.60;38.70;;;;;;5154338;27;20187;-58
2022/03/25 13:31:39;;;;;;;10.77;8.60;;;27.30;36.60;;;;;;5154134;27;20191;-55
2022/03/25 13:34:23;;;;;;;11.15;8.63;;;27.40;36.50;;;;;;5152826;27;20261;-58
2022/03/25 13:37:07;;;;;;;11.65;8.55;;;26.60;37.10;;;;;;5117764;27;20228;-57
2022/03/25 13:39:52;;;;;;;10.82;8.20;;;26.30;37.60;;;;;;5103238;28;20234;-59
2022/03/25 13:42:36;;;;;;;12.05;8.98;;;26.60;37.80;;;;;;5102416;28;20942;-55
2022/03/25 13:45:20;;;;;;;13.13;8.73;;;28.30;36.40;;;;;;5104546;28;20219;-56
2022/03/25 13:48:10;;;;;;;12.05;8.38;;;30.00;35.20;;;;;;5101884;28;20196;-61
2022/03/25 13:50:55;;;;;;;11.85;8.13;;;29.70;34.20;;;;;;5102644;28;20200;-59
2022/03/25 13:53:40;;;;;;;12.02;9.40;;;29.70;34.50;;;;;;5103866;28;20188;-57
2022/03/25 13:56:25;;;;;;;11.52;8.43;;;30.10;34.30;;;;;;5102274;28;20277;-59
2022/03/25 13:59:21;;;;;;;9.57;7.63;;;30.40;34.40;;;;;;5132494;27;20202;-59
2022/03/25 14:02:28;;;;;;;12.35;8.70;;;30.70;33.80;;;;;;5129983;27;20194;-54
2022/03/25 14:05:14;;;;;;;10.88;8.25;;;30.10;34.10;;;;;;5134567;27;20240;-60
2022/03/25 14:07:59;;;;;;;11.90;8.38;;;29.80;34.40;;;;;;5130770;27;20333;-60
2022/03/25 14:10:53;;;;;;;12.95;8.50;;;29.80;34.20;;;;;;5131219;27;20188;-55
2022/03/25 14:14:00;;;;;;;12.27;8.63;;;28.50;34.40;;;;;;5129383;27;20249;-53
2022/03/25 14:16:53;;;;;;;12.00;8.02;;;29.70;34.50;;;;;;5125653;27;20223;-56
2022/03/25 14:19:38;;;;;;;10.20;7.78;;;30.20;33.60;;;;;;5131941;27;20218;-47
2022/03/25 14:22:22;;;;;;;11.35;8.35;;;30.30;33.10;;;;;;5132999;27;20248;-58
2022/03/25 14:25:08;;;;;;;9.48;7.63;;;31.30;32.80;;;;;;5129151;27;20195;-56
2022/03/25 14:27:59;;;;;;;9.57;7.63;;;30.90;32.50;;;;;;5109989;28;20246;-54
2022/03/25 14:30:43;;;;;;;9.20;7.65;;;31.80;33.10;;;;;;5119713;28;20219;-59
2022/03/25 14:33:27;;;;;;;9.82;7.88;;;31.10;32.90;;;;;;5122928;28;20227;-59
2022/03/25 14:36:12;;;;;;;10.20;7.82;;;31.00;33.00;;;;;;5123181;28;20187;-49
2022/03/25 14:38:57;;;;;;;10.95;8.18;;;30.90;33.10;;;;;;5121320;28;20186;-49
2022/03/25 14:41:43;;;;;;;8.70;7.40;;;31.90;32.00;;;;;;5122279;28;20240;-49